createdAt,value
2023-04-02T00:08:34.681Z,6.5
2023-04-02T00:18:35.458Z,6.4
2023-04-02T00:28:35.981Z,6.2
2023-04-02T00:38:36.962Z,6.1
2023-04-02T00:48:37.400Z,6.1
2023-04-02T00:58:37.950Z,6.1
2023-04-02T01:08:38.378Z,6
2023-04-02T01:18:38.576Z,5.8
2023-04-02T01:28:39.514Z,5.7
2023-04-02T01:38:39.996Z,5.6
2023-04-02T01:48:40.635Z,5.5
2023-04-02T01:58:41.350Z,5.5
2023-04-02T02:08:47.944Z,5.4
2023-04-02T02:18:48.593Z,5.4
2023-04-02T02:28:49.511Z,5.3
2023-04-02T02:38:50.038Z,5.3
2023-04-02T02:48:50.598Z,5.1
2023-04-02T03:08:51.710Z,4.9
2023-04-02T03:18:52.606Z,4.8
2023-04-02T03:28:53.458Z,4.8
2023-04-02T03:38:54.326Z,4.6
2023-04-02T03:48:54.966Z,4.4
2023-04-02T03:58:55.074Z,4.3
2023-04-02T04:08:56.115Z,4.2
2023-04-02T04:18:57.044Z,4.1
2023-04-02T04:28:57.559Z,4
2023-04-02T04:38:57.912Z,4
2023-04-02T04:48:58.783Z,4
2023-04-02T04:58:59.853Z,3.9
2023-04-02T05:09:00.618Z,3.9
2023-04-02T05:29:01.267Z,3.8
2023-04-02T05:39:01.656Z,3.7
2023-04-02T05:49:02.233Z,3.7
2023-04-02T05:59:02.997Z,3.8
2023-04-02T06:09:04.026Z,3.7
2023-04-02T06:39:05.726Z,3.6
2023-04-02T06:49:06.539Z,3.6
2023-04-02T06:59:07.556Z,3.6
2023-04-02T07:09:08.074Z,3.6
2023-04-02T07:19:09.012Z,3.6
2023-04-02T07:29:09.963Z,3.6
2023-04-02T07:39:10.437Z,3.7
2023-04-02T07:49:11.397Z,3.7
2023-04-02T07:59:11.535Z,3.8
2023-04-02T08:09:11.963Z,3.8
2023-04-02T08:19:13.035Z,3.9
2023-04-02T08:29:13.385Z,4
2023-04-02T08:39:14.513Z,3.9
2023-04-02T08:49:14.575Z,3.9
2023-04-02T08:59:15.010Z,4.1
2023-04-02T09:09:15.416Z,4.1
2023-04-02T09:19:15.634Z,4.2
2023-04-02T09:29:15.730Z,4.4
2023-04-02T09:39:16.720Z,4.5
2023-04-02T09:49:17.532Z,4.5
2023-04-02T10:09:19.173Z,4.5
2023-04-02T10:19:20.081Z,4.6
2023-04-02T10:29:20.250Z,4.8
2023-04-02T10:39:21.200Z,5.1
2023-04-02T10:49:21.896Z,5.1
2023-04-02T11:09:23.371Z,5.2
2023-04-02T11:19:23.660Z,5.4
2023-04-02T11:29:23.837Z,5.5
2023-04-02T11:39:24.270Z,5.5
2023-04-02T11:49:25.165Z,5.7
2023-04-02T12:09:26.310Z,5.8
2023-04-02T12:19:26.573Z,6.5
2023-04-02T12:29:27.171Z,7.4
2023-04-02T12:39:28.415Z,7.9
2023-04-02T12:59:29.923Z,8.8
2023-04-02T13:09:30.726Z,8.4
2023-04-02T13:19:31.577Z,7.9
2023-04-02T13:29:32.500Z,7.8
2023-04-02T13:39:32.890Z,7.7
2023-04-02T13:49:33.617Z,8.8
2023-04-02T13:59:34.197Z,8.9
2023-04-02T14:09:34.870Z,8.2
2023-04-02T14:19:35.915Z,8.2
2023-04-02T14:29:36.743Z,8.5
2023-04-02T14:39:37.830Z,9
2023-04-02T14:49:38.505Z,9.1
2023-04-02T14:59:38.612Z,9
2023-04-02T15:09:39.636Z,9.2
2023-04-02T15:19:40.646Z,8.6
2023-04-02T15:29:41.378Z,8.1
2023-04-02T15:49:42.335Z,8.6
2023-04-02T15:59:43.208Z,8.3
2023-04-02T16:19:43.971Z,8.2
2023-04-02T16:29:53.706Z,8.1
2023-04-02T16:39:44.585Z,8
2023-04-02T16:49:45.048Z,7.9
2023-04-02T16:59:45.425Z,7.9
2023-04-02T17:09:45.869Z,7.9
2023-04-02T17:19:46.129Z,7.9
2023-04-02T17:29:46.738Z,7.8
2023-04-02T17:39:46.844Z,7.7
2023-04-02T17:49:47.613Z,7.5
2023-04-02T17:59:48.086Z,7.4
2023-04-02T18:09:48.303Z,7.2
2023-04-02T18:19:49.355Z,7
2023-04-02T18:29:49.593Z,7
2023-04-02T19:49:53.261Z,4.9
2023-04-02T19:59:54.123Z,4.7
2023-04-02T20:09:54.831Z,4.5
2023-04-02T20:19:55.194Z,4.2
2023-04-02T20:39:56.616Z,3.9
2023-04-02T20:49:56.965Z,3.6
2023-04-02T20:59:57.065Z,3.4
2023-04-02T21:09:57.405Z,3.2
2023-04-02T21:29:58.444Z,2.9
2023-04-02T21:39:58.644Z,2.9
2023-04-02T21:49:58.841Z,2.9
2023-04-02T21:59:58.979Z,2.8
2023-04-02T22:09:59.982Z,2.6
2023-04-02T22:20:00.369Z,2.4
2023-04-02T22:30:01.222Z,2.3
2023-04-02T22:40:01.928Z,2.2
2023-04-02T22:50:02.485Z,2.2
2023-04-02T23:00:02.668Z,2.3
2023-04-02T23:10:04.670Z,2.2
2023-04-02T23:20:03.655Z,2.1
2023-04-02T23:30:04.073Z,1.9
2023-04-02T23:40:05.064Z,1.8
2023-04-02T23:50:05.894Z,1.8
